createdAt,value
2023-02-02T00:04:33.983Z,5.63
2023-02-02T00:09:35.736Z,6.33
2023-02-02T00:14:37.379Z,6.13
2023-02-02T00:19:39.001Z,5.53
2023-02-02T00:24:40.632Z,7.45
2023-02-02T00:29:42.308Z,6.72
2023-02-02T00:34:43.977Z,7.25
2023-02-02T00:39:45.589Z,6.63
2023-02-02T00:45:05.953Z,7.07
2023-02-02T00:50:08.417Z,7.00
2023-02-02T00:55:11.540Z,7.10
2023-02-02T01:00:16.909Z,7.38
2023-02-02T01:05:18.994Z,7.85
2023-02-02T01:10:20.625Z,7.32
2023-02-02T01:15:22.492Z,7.07
2023-02-02T01:20:24.672Z,7.18
2023-02-02T01:25:27.455Z,7.55
2023-02-02T01:30:29.050Z,7.93
2023-02-02T01:35:30.705Z,7.53
2023-02-02T01:40:32.326Z,7.53
2023-02-02T01:45:34.074Z,6.72
2023-02-02T01:50:35.989Z,7.85
2023-02-02T01:55:39.802Z,7.22
2023-02-02T02:00:45.052Z,8.25
2023-02-02T02:05:54.950Z,7.78
2023-02-02T02:10:57.319Z,8.15
2023-02-02T02:16:20.699Z,7.97
2023-02-02T02:21:56.155Z,8.43
2023-02-02T02:27:04.045Z,8.52
2023-02-02T02:32:24.841Z,9.18
2023-02-02T02:37:45.387Z,8.63
2023-02-02T02:42:51.768Z,7.63
2023-02-02T02:47:54.650Z,8.23
2023-02-02T02:53:02.474Z,8.02
2023-02-02T02:58:06.872Z,8.25
2023-02-02T03:03:27.357Z,7.70
2023-02-02T03:08:37.868Z,8.38
2023-02-02T03:13:41.046Z,8.18
2023-02-02T03:18:42.898Z,8.13
2023-02-02T03:23:44.541Z,7.65
2023-02-02T03:28:46.369Z,8.02
2023-02-02T03:33:48.007Z,8.50
2023-02-02T03:38:49.722Z,8.25
2023-02-02T03:43:51.337Z,8.35
2023-02-02T03:48:53.061Z,7.60
2023-02-02T03:53:54.748Z,8.18
2023-02-02T03:58:56.412Z,7.78
2023-02-02T04:03:58.962Z,7.82
2023-02-02T04:09:00.627Z,9.00
2023-02-02T04:14:02.272Z,7.43
2023-02-02T04:19:04.695Z,8.35
2023-02-02T04:24:07.734Z,8.18
2023-02-02T04:29:09.618Z,8.25
2023-02-02T04:34:11.316Z,7.88
2023-02-02T04:39:13.002Z,9.25
2023-02-02T04:44:18.513Z,8.88
2023-02-02T04:49:20.821Z,8.75
2023-02-02T04:54:22.451Z,9.05
2023-02-02T04:59:24.205Z,9.60
2023-02-02T05:04:26.040Z,9.07
2023-02-02T05:09:27.771Z,10.45
2023-02-02T05:14:29.424Z,9.40
2023-02-02T05:19:31.076Z,9.48
2023-02-02T05:24:32.790Z,10.07
2023-02-02T05:29:34.430Z,9.98
2023-02-02T05:34:36.081Z,9.90
2023-02-02T05:39:37.811Z,10.48
2023-02-02T05:44:39.476Z,10.00
2023-02-02T05:49:41.245Z,10.57
2023-02-02T05:54:43.014Z,10.00
2023-02-02T05:59:44.723Z,11.63
2023-02-02T06:04:46.540Z,10.50
2023-02-02T06:09:48.200Z,9.70
2023-02-02T06:14:49.960Z,10.02
2023-02-02T06:19:51.708Z,9.18
2023-02-02T06:24:53.509Z,8.68
2023-02-02T06:29:55.123Z,9.82
2023-02-02T06:34:57.174Z,8.50
2023-02-02T06:39:58.864Z,8.70
2023-02-02T06:45:07.638Z,8.00
2023-02-02T06:50:10.007Z,8.93
2023-02-02T06:55:12.784Z,9.15
2023-02-02T07:00:14.854Z,8.82
2023-02-02T07:05:19.390Z,8.68
2023-02-02T07:11:14.445Z,9.38
2023-02-02T07:15:42.728Z,8.77
2023-02-02T07:20:45.490Z,8.48
2023-02-02T07:26:01.659Z,7.63
2023-02-02T07:31:21.940Z,7.03
2023-02-02T07:36:25.079Z,7.60
2023-02-02T07:41:27.861Z,6.32
2023-02-02T07:46:29.652Z,7.10
2023-02-02T07:51:31.462Z,7.90
2023-02-02T07:56:34.543Z,6.97
2023-02-02T08:01:36.331Z,6.97
2023-02-02T08:06:40.051Z,6.45
2023-02-02T08:11:41.848Z,6.90
2023-02-02T08:16:43.526Z,6.85
2023-02-02T08:21:45.210Z,7.60
2023-02-02T08:26:47.036Z,7.38
2023-02-02T08:31:49.877Z,7.13
2023-02-02T08:36:52.692Z,7.80
2023-02-02T08:41:57.638Z,7.43
2023-02-02T08:46:59.470Z,7.07
2023-02-02T08:52:01.183Z,7.07
2023-02-02T08:57:02.907Z,6.55
2023-02-02T09:02:05.714Z,6.97
2023-02-02T09:07:07.441Z,7.00
2023-02-02T09:12:09.192Z,7.28
2023-02-02T09:17:10.855Z,7.97
2023-02-02T09:22:12.574Z,8.63
2023-02-02T09:27:14.297Z,8.10
2023-02-02T09:32:15.958Z,8.30
2023-02-02T09:37:19.740Z,8.77
2023-02-02T09:42:34.820Z,7.65
2023-02-02T09:47:45.475Z,8.30
2023-02-02T09:53:18.161Z,7.93
2023-02-02T09:58:27.610Z,8.25
2023-02-02T10:03:42.959Z,7.00
2023-02-02T10:08:51.668Z,8.25
2023-02-02T10:14:00.040Z,6.75
2023-02-02T10:19:11.942Z,6.05
2023-02-02T10:24:21.197Z,5.85
2023-02-02T10:29:23.501Z,6.43
2023-02-02T10:34:51.249Z,5.88
2023-02-02T10:40:14.796Z,5.95
2023-02-02T10:45:20.413Z,7.40
2023-02-02T10:50:22.576Z,6.20
2023-02-02T10:55:43.196Z,6.75
2023-02-02T11:00:52.653Z,7.63
2023-02-02T11:06:13.998Z,7.65
2023-02-02T11:11:29.436Z,6.85
2023-02-02T11:16:42.573Z,7.22
2023-02-02T11:21:54.603Z,6.68
2023-02-02T11:27:17.990Z,6.60
2023-02-02T11:32:27.430Z,6.25
2023-02-02T11:37:32.124Z,6.40
2023-02-02T11:42:34.165Z,6.50
2023-02-02T11:47:36.021Z,5.90
2023-02-02T11:52:40.307Z,5.72
2023-02-02T12:03:27.153Z,5.13
2023-02-02T12:08:29.965Z,5.68
2023-02-02T12:13:57.377Z,5.80
2023-02-02T12:19:25.318Z,6.18
2023-02-02T12:24:38.043Z,6.10
2023-02-02T12:29:51.846Z,6.75
2023-02-02T12:34:56.476Z,7.73
2023-02-02T12:40:27.227Z,7.20
2023-02-02T12:45:47.566Z,6.60
2023-02-02T12:51:08.788Z,6.40
2023-02-02T12:56:28.018Z,6.00
2023-02-02T13:01:51.030Z,5.88
2023-02-02T13:07:07.119Z,6.30
2023-02-02T13:12:12.319Z,6.35
2023-02-02T13:17:33.991Z,6.18
2023-02-02T13:22:41.683Z,6.03
2023-02-02T13:27:44.395Z,5.05
2023-02-02T13:32:48.196Z,5.60
2023-02-02T13:38:05.635Z,5.47
2023-02-02T13:43:39.138Z,5.22
2023-02-02T13:48:52.713Z,4.10
2023-02-02T13:54:10.823Z,5.50
2023-02-02T13:59:36.927Z,4.18
2023-02-02T14:04:39.209Z,4.30
2023-02-02T14:09:42.120Z,4.15
2023-02-02T14:14:46.876Z,3.47
2023-02-02T14:19:57.284Z,3.20
2023-02-02T14:24:59.090Z,3.33
2023-02-02T14:30:01.473Z,3.50
2023-02-02T14:35:09.995Z,3.17
2023-02-02T14:40:20.301Z,3.03
2023-02-02T14:45:32.791Z,3.05
2023-02-02T14:50:53.106Z,2.63
2023-02-02T14:56:05.716Z,2.95
2023-02-02T15:01:17.172Z,3.67
2023-02-02T15:06:25.688Z,2.78
2023-02-02T15:11:31.946Z,2.45
2023-02-02T15:16:36.798Z,3.10
2023-02-02T15:21:40.607Z,3.08
2023-02-02T15:26:43.580Z,3.20
2023-02-02T15:31:54.404Z,2.47
2023-02-02T15:37:02.990Z,2.63
2023-02-02T15:42:32.819Z,2.45
2023-02-02T15:47:37.717Z,2.10
2023-02-02T15:52:47.455Z,2.58
